Time;durP1;ratioP1;P1;durP2;ratioP2;P2;SDS_P1;SDS_P2;PMS_P1;PMS_P2;Temp;Humidity;BMP_temperature;BMP_pressure;BME280_temperature;BME280_humidity;BME280_pressure;Samples;Min_cycle;Max_cycle;Signal;HPM_P1;HPM_P2
2023/06/09 00:00:27;;;;;;;;;20.25;17.25;;;;;24.76;40.99;100533.19;4979837;28;44696;-57
2023/06/09 00:02:53;;;;;;;;;16.25;14.75;;;;;24.77;41.34;100534.88;4978211;28;45294;-57
2023/06/09 00:05:18;;;;;;;;;23.50;18.75;;;;;24.77;40.82;100541.97;4971144;28;46322;-57
2023/06/09 00:07:52;;;;;;;;;21.25;18.25;;;;;24.77;40.84;100536.66;4961720;28;45962;-57
2023/06/09 00:10:18;;;;;;;;;21.25;20.25;;;;;24.77;41.60;100531.38;4961672;28;45384;-55
2023/06/09 00:12:43;;;;;;;;;20.00;17.75;;;;;24.77;41.16;100536.66;4967526;28;45326;-57
2023/06/09 00:15:10;;;;;;;;;23.25;19.50;;;;;24.77;41.62;100536.66;4950146;28;47467;-57
2023/06/09 00:17:39;;;;;;;;;21.25;20.50;;;;;24.75;41.24;100528.84;4959800;28;45484;-57
2023/06/09 00:20:09;;;;;;;;;19.50;19.50;;;;;24.75;41.15;100528.84;4959387;28;45344;-57
2023/06/09 00:22:42;;;;;;;;;17.75;16.25;;;;;24.74;41.56;100529.81;4960271;28;45644;-57
2023/06/09 00:25:20;;;;;;;;;26.25;21.25;;;;;24.75;42.02;100522.72;4958881;28;46469;-57
2023/06/09 00:27:46;;;;;;;;;19.25;16.75;;;;;24.75;41.58;100522.72;4959830;28;45285;-57
2023/06/09 00:30:14;;;;;;;;;21.75;20.00;;;;;24.73;41.55;100522.00;4966288;28;45690;-57
2023/06/09 00:32:41;;;;;;;;;18.75;18.00;;;;;24.73;41.56;100522.81;4962421;28;45390;-57
2023/06/09 00:35:06;;;;;;;;;22.50;19.00;;;;;24.72;41.29;100522.97;4958311;28;45588;-57
2023/06/09 00:37:32;;;;;;;;;20.25;19.50;;;;;24.74;42.06;100521.03;4958492;28;45407;-56
2023/06/09 00:39:57;;;;;;;;;20.50;20.00;;;;;24.74;41.36;100521.88;4958355;28;45385;-57
2023/06/09 00:42:23;;;;;;;;;19.75;17.00;;;;;24.70;41.97;100508.00;4958558;28;45353;-56
2023/06/09 00:44:49;;;;;;;;;19.25;17.50;;;;;24.71;41.83;100511.50;4973826;28;46426;-57
2023/06/09 00:47:14;;;;;;;;;18.50;16.50;;;;;24.72;41.62;100501.75;4964150;28;45297;-58
2023/06/09 00:49:40;;;;;;;;;11.75;10.00;;;;;24.69;41.76;100501.03;4958819;28;45327;-58
2023/06/09 00:52:06;;;;;;;;;19.00;18.00;;;;;24.69;42.49;100501.03;4964304;28;45225;-57
2023/06/09 00:54:32;;;;;;;;;20.00;19.00;;;;;24.68;42.79;100496.69;4966367;28;46437;-58
2023/06/09 00:56:57;;;;;;;;;20.75;19.00;;;;;24.66;42.25;100495.94;4960537;28;45858;-58
2023/06/09 00:59:25;;;;;;;;;25.00;18.50;;;;;24.66;42.25;100489.78;4958776;28;45231;-57
2023/06/09 01:01:51;;;;;;;;;19.00;17.75;;;;;24.65;42.20;100496.06;4958533;28;45516;-57
2023/06/09 01:04:16;;;;;;;;;19.75;18.75;;;;;24.64;41.86;100489.91;4963161;28;46571;-57
2023/06/09 01:07:24;;;;;;;;;23.75;21.00;;;;;24.64;41.86;100489.91;4962497;28;45393;-57
2023/06/09 01:10:01;;;;;;;;;16.25;16.25;;;;;24.62;42.08;100491.84;4977251;28;45243;-57
2023/06/09 01:12:44;;;;;;;;;21.25;21.25;;;;;24.61;42.57;100484.88;4974174;28;45306;-56
2023/06/09 01:15:18;;;;;;;;;19.75;17.00;;;;;24.61;42.05;100486.66;4967612;28;46466;-57
2023/06/09 01:17:48;;;;;;;;;20.50;19.25;;;;;24.59;42.63;100485.91;4984505;28;45385;-56
2023/06/09 01:20:22;;;;;;;;;19.00;18.25;;;;;24.56;42.75;100476.41;4986523;28;44748;-57
2023/06/09 01:22:57;;;;;;;;;20.75;17.75;;;;;24.55;42.55;100480.88;4955047;28;45296;-57
2023/06/09 01:25:43;;;;;;;;;21.50;19.00;;;;;24.55;42.49;100474.72;4958149;28;45283;-57
2023/06/09 01:28:12;;;;;;;;;21.00;19.50;;;;;24.53;42.71;100476.66;4957918;28;45370;-57
2023/06/09 01:30:40;;;;;;;;;19.25;19.00;;;;;24.52;42.70;100472.34;4959186;28;45499;-57
2023/06/09 01:33:12;;;;;;;;;19.75;18.25;;;;;24.53;42.60;100474.00;4962806;28;45402;-57
2023/06/09 01:35:39;;;;;;;;;25.00;19.50;;;;;24.52;42.75;100464.41;4959937;28;46201;-58
2023/06/09 01:38:06;;;;;;;;;19.00;19.00;;;;;24.51;42.24;100473.31;4957409;28;45281;-56
2023/06/09 01:40:32;;;;;;;;;21.25;21.25;;;;;24.49;42.51;100464.63;4957857;28;45443;-56
2023/06/09 01:43:00;;;;;;;;;23.00;21.00;;;;;24.51;42.65;100468.00;4957944;28;45526;-56
2023/06/09 01:45:25;;;;;;;;;18.25;17.75;;;;;24.49;42.82;100465.44;4957560;28;46092;-56
2023/06/09 01:47:51;;;;;;;;;20.75;20.25;;;;;24.48;42.27;100465.59;4958080;28;45342;-56
2023/06/09 01:50:33;;;;;;;;;22.25;18.50;;;;;24.47;42.95;100469.19;4959758;28;45398;-56
2023/06/09 01:53:05;;;;;;;;;21.50;20.50;;;;;24.46;43.09;100473.66;4967428;28;45362;-57
2023/06/09 01:55:36;;;;;;;;;19.75;18.75;;;;;24.46;42.26;100462.22;4970337;28;47074;-56
2023/06/09 01:58:09;;;;;;;;;18.50;16.50;;;;;24.44;42.72;100461.47;4969451;28;45299;-56
2023/06/09 02:00:36;;;;;;;;;18.50;18.00;;;;;24.45;42.67;100465.81;4963495;28;45342;-57
2023/06/09 02:03:05;;;;;;;;;22.75;22.00;;;;;24.44;42.62;100461.47;4960819;28;44874;-56
2023/06/09 02:05:33;;;;;;;;;22.75;19.25;;;;;24.43;42.53;100454.50;4967195;28;46406;-57
2023/06/09 02:08:00;;;;;;;;;22.00;20.00;;;;;24.44;43.06;100461.47;4978432;28;45125;-57
2023/06/09 02:10:26;;;;;;;;;19.25;19.00;;;;;24.42;43.25;100461.59;4969171;28;45370;-57
2023/06/09 02:12:52;;;;;;;;;24.75;21.25;;;;;24.42;42.86;100460.78;4965533;28;45393;-57
2023/06/09 02:15:18;;;;;;;;;26.50;20.25;;;;;24.41;43.01;100456.44;4959465;28;46270;-57
2023/06/09 02:17:45;;;;;;;;;21.75;20.00;;;;;24.39;43.19;100456.53;4957065;28;45373;-56
2023/06/09 02:20:10;;;;;;;;;21.00;21.00;;;;;24.40;42.83;100450.28;4957139;28;45766;-57
2023/06/09 02:22:36;;;;;;;;;19.25;19.00;;;;;24.37;42.63;100454.03;4961041;28;45529;-57
2023/06/09 02:25:03;;;;;;;;;22.25;20.75;;;;;24.38;43.20;100454.84;4961732;28;46530;-57
2023/06/09 02:27:28;;;;;;;;;20.25;17.50;;;;;24.37;42.46;100451.38;4939288;28;45879;-56
2023/06/09 02:29:54;;;;;;;;;22.75;20.00;;;;;24.35;43.01;100445.34;4957043;28;45330;-57
2023/06/09 02:32:20;;;;;;;;;21.25;18.75;;;;;24.34;42.76;100442.84;4956880;28;45598;-57
2023/06/09 02:34:45;;;;;;;;;22.00;22.00;;;;;24.33;43.06;100433.19;4956583;28;46668;-57
2023/06/09 02:37:11;;;;;;;;;22.50;20.00;;;;;24.33;42.49;100430.53;4956513;28;45453;-58
2023/06/09 02:39:36;;;;;;;;;20.25;17.50;;;;;24.31;43.14;100430.66;4956840;28;45350;-57
2023/06/09 02:42:02;;;;;;;;;23.75;22.50;;;;;24.31;43.11;100429.81;4956852;28;45364;-57
2023/06/09 02:44:28;;;;;;;;;21.50;20.00;;;;;24.31;42.72;100435.13;4956592;28;46863;-56
2023/06/09 02:46:54;;;;;;;;;29.50;22.50;;;;;24.30;43.23;100433.44;4956881;28;45852;-57
2023/06/09 02:49:19;;;;;;;;;21.25;19.50;;;;;24.28;43.26;100433.56;4960367;28;45236;-56
2023/06/09 02:51:44;;;;;;;;;19.75;16.50;;;;;24.26;43.09;100430.19;4964800;28;45279;-56
2023/06/09 02:54:10;;;;;;;;;24.50;20.75;;;;;24.26;42.83;100431.97;4961111;28;45419;-58
2023/06/09 02:56:35;;;;;;;;;21.33;19.00;;;;;24.26;42.81;100432.84;4956268;28;50193;-57
2023/06/09 02:59:04;;;;;;;;;19.75;15.75;;;;;24.24;42.77;100430.31;4956668;28;45367;-58
2023/06/09 03:01:34;;;;;;;;;24.50;21.50;;;;;24.26;43.17;100427.53;4956818;28;45295;-57
2023/06/09 03:04:00;;;;;;;;;23.00;21.75;;;;;24.26;43.04;100429.31;4957492;28;46504;-57
2023/06/09 03:06:25;;;;;;;;;18.50;18.50;;;;;24.26;43.57;100430.19;4942696;28;45256;-56
2023/06/09 03:08:51;;;;;;;;;22.67;21.33;;;;;24.25;42.92;100436.44;4959583;28;48995;-56
2023/06/09 03:11:16;;;;;;;;;21.67;21.00;;;;;24.25;43.04;100436.44;4941923;28;51702;-57
2023/06/09 03:13:41;;;;;;;;;21.75;20.50;;;;;24.23;43.39;100433.06;4959671;28;45423;-56
2023/06/09 03:16:07;;;;;;;;;22.00;19.33;;;;;24.24;43.34;100434.75;4958959;28;57748;-56
2023/06/09 03:18:36;;;;;;;;;19.00;19.00;;;;;24.23;43.14;100435.72;4959847;28;45248;-57
2023/06/09 03:21:01;;;;;;;;;20.00;19.00;;;;;24.22;43.02;100440.19;4943454;28;45371;-57
2023/06/09 03:23:27;;;;;;;;;20.25;19.75;;;;;24.21;43.12;100435.84;4964211;28;46652;-56
2023/06/09 03:25:52;;;;;;;;;22.00;19.00;;;;;24.19;42.80;100442.22;4967503;28;45479;-55
2023/06/09 03:28:18;;;;;;;;;22.75;20.50;;;;;24.17;42.81;100438.84;4965982;28;45538;-57
2023/06/09 03:30:44;;;;;;;;;10.50;9.25;;;;;24.17;43.18;100439.66;4968176;28;45475;-57
2023/06/09 03:33:11;;;;;;;;;22.00;19.00;;;;;24.16;43.22;100437.16;4964086;28;46197;-57
2023/06/09 03:35:36;;;;;;;;;20.00;19.75;;;;;24.13;43.48;100435.59;4962040;28;45291;-56
2023/06/09 03:38:02;;;;;;;;;21.00;19.75;;;;;24.14;43.27;100450.53;4960494;28;45276;-57
2023/06/09 03:40:27;;;;;;;;;19.25;19.25;;;;;24.12;43.68;100435.69;4959878;28;45233;-57
2023/06/09 03:42:52;;;;;;;;;20.67;20.33;;;;;24.12;43.74;100435.69;4958486;28;59102;-57
2023/06/09 03:45:17;;;;;;;;;20.00;20.00;;;;;24.09;43.59;100424.38;4958594;28;52682;-57
2023/06/09 03:47:43;;;;;;;;;22.67;20.67;;;;;24.08;43.60;100430.66;4958644;28;54215;-56
2023/06/09 03:50:08;;;;;;;;;22.75;20.75;;;;;24.07;43.39;100430.75;4941924;28;45757;-58
2023/06/09 03:52:34;;;;;;;;;20.25;20.00;;;;;24.06;43.61;100427.28;4958835;28;45656;-57
2023/06/09 03:55:00;;;;;;;;;19.00;18.25;;;;;24.04;43.63;100429.19;4959067;28;45390;-56
2023/06/09 03:57:25;;;;;;;;;20.75;17.75;;;;;24.04;43.96;100429.19;4959023;28;45682;-56
2023/06/09 03:59:51;;;;;;;;;20.50;20.00;;;;;24.02;43.20;100436.41;4941477;28;45434;-56
2023/06/09 04:02:16;;;;;;;;;18.50;18.50;;;;;24.02;43.87;100431.13;4958551;28;48272;-57
2023/06/09 04:04:41;;;;;;;;;21.00;19.50;;;;;24.00;43.84;100430.38;4960053;28;45350;-56
2023/06/09 04:07:07;;;;;;;;;22.75;18.00;;;;;23.99;43.32;100426.03;4965685;28;45477;-57
2023/06/09 04:09:34;;;;;;;;;24.00;22.00;;;;;23.99;43.72;100430.50;4963905;28;45409;-56
2023/06/09 04:12:00;;;;;;;;;27.00;21.25;;;;;23.99;43.45;100431.34;4963385;28;46527;-56
2023/06/09 04:14:25;;;;;;;;;22.75;21.75;;;;;23.99;43.30;100425.22;4958939;28;45820;-56
2023/06/09 04:16:51;;;;;;;;;19.75;16.75;;;;;23.99;43.86;100427.88;4959414;28;45795;-56
2023/06/09 04:19:16;;;;;;;;;21.25;19.25;;;;;23.97;43.79;100424.47;4961880;28;45375;-56
2023/06/09 04:21:43;;;;;;;;;28.00;22.33;;;;;23.96;43.95;100431.59;4959930;28;56895;-56
2023/06/09 04:24:09;;;;;;;;;21.50;18.75;;;;;23.95;43.39;100419.31;4960720;28;45248;-56
2023/06/09 04:26:37;;;;;;;;;18.00;17.00;;;;;23.94;43.39;100430.84;4959404;28;45497;-56
2023/06/09 04:29:02;;;;;;;;;22.75;22.25;;;;;23.92;43.60;100427.44;4958822;28;45409;-56
2023/06/09 04:31:33;;;;;;;;;19.25;18.25;;;;;23.93;43.45;100434.44;4958822;28;46265;-57
2023/06/09 04:34:10;;;;;;;;;21.75;20.25;;;;;23.93;43.57;100437.91;4966008;28;45229;-56
2023/06/09 04:36:38;;;;;;;;;20.75;18.50;;;;;23.93;43.68;100442.38;4973973;28;45374;-57
2023/06/09 04:39:05;;;;;;;;;19.25;17.75;;;;;23.92;43.73;100432.75;4961219;28;45239;-56
2023/06/09 04:41:32;;;;;;;;;26.00;21.50;;;;;23.92;43.69;100430.09;4963166;28;45492;-56
2023/06/09 04:44:03;;;;;;;;;19.00;17.00;;;;;23.93;44.65;100432.63;4965999;28;45174;-56
2023/06/09 04:46:37;;;;;;;;;21.75;21.25;;;;;23.92;43.65;100436.22;4976679;28;45383;-56
2023/06/09 04:49:09;;;;;;;;;20.00;16.75;;;;;23.93;44.16;100442.38;4977123;28;45338;-56
2023/06/09 04:51:46;;;;;;;;;22.75;20.50;;;;;23.91;44.05;100444.28;4980186;28;46383;-56
2023/06/09 04:54:13;;;;;;;;;24.75;18.25;;;;;23.92;44.17;100449.47;4982824;28;45171;-56
2023/06/09 04:56:40;;;;;;;;;17.75;17.75;;;;;23.92;43.58;100452.09;4981687;28;45373;-57
2023/06/09 04:59:06;;;;;;;;;20.00;19.25;;;;;23.91;44.04;100444.28;4963362;28;45200;-57
2023/06/09 05:01:33;;;;;;;;;18.25;18.25;;;;;23.92;43.98;100446.81;4941066;28;48003;-58
2023/06/09 05:03:59;;;;;;;;;22.50;22.50;;;;;23.93;43.45;100455.63;4957146;28;45367;-57
2023/06/09 05:06:25;;;;;;;;;26.25;21.75;;;;;23.92;43.66;100448.63;4958457;28;45398;-58
2023/06/09 05:08:51;;;;;;;;;24.00;18.75;;;;;23.91;43.65;100447.81;4958412;28;45268;-56
2023/06/09 05:11:16;;;;;;;;;20.00;19.00;;;;;23.90;43.14;100446.09;4957834;28;47194;-57
2023/06/09 05:13:42;;;;;;;;;22.75;21.50;;;;;23.90;43.85;100443.47;4957355;28;45322;-56
2023/06/09 05:16:07;;;;;;;;;20.25;19.75;;;;;23.91;44.20;100442.50;4957510;28;45448;-56
2023/06/09 05:18:32;;;;;;;;;22.50;17.25;;;;;23.92;43.91;100445.97;4960820;28;45521;-56
2023/06/09 05:20:58;;;;;;;;;23.67;21.33;;;;;23.91;43.58;100442.50;4962487;28;60931;-57
2023/06/09 05:23:23;;;;;;;;;23.00;22.25;;;;;23.93;43.52;100447.66;4959603;28;45410;-57
2023/06/09 05:25:49;;;;;;;;;20.75;19.75;;;;;23.93;43.78;100447.66;4964092;28;45315;-56
2023/06/09 05:28:14;;;;;;;;;21.75;20.00;;;;;23.94;43.59;100452.00;4950566;28;45410;-57
2023/06/09 05:30:42;;;;;;;;;22.50;21.50;;;;;23.93;43.88;100447.66;4963335;28;45936;-57
2023/06/09 05:33:07;;;;;;;;;19.00;17.50;;;;;23.93;43.85;100453.78;4958515;28;48396;-56
2023/06/09 05:35:33;;;;;;;;;23.00;21.25;;;;;23.93;43.69;100450.31;4958357;28;45410;-57
2023/06/09 05:37:58;;;;;;;;;23.00;22.00;;;;;23.92;43.25;100456.56;4958804;28;45382;-56
2023/06/09 05:40:23;;;;;;;;;19.50;16.50;;;;;23.92;43.85;100453.91;4964854;28;45230;-57
2023/06/09 05:42:49;;;;;;;;;23.75;20.25;;;;;23.93;43.77;100458.25;4961110;28;45389;-57
2023/06/09 05:45:15;;;;;;;;;21.25;20.00;;;;;23.93;43.56;100464.38;4957949;28;45370;-57
2023/06/09 05:47:40;;;;;;;;;18.75;17.25;;;;;23.94;43.67;100459.94;4958025;28;45377;-57
2023/06/09 05:50:06;;;;;;;;;18.25;17.75;;;;;23.94;43.37;100459.94;4957560;28;46919;-56
2023/06/09 05:52:31;;;;;;;;;20.00;17.00;;;;;23.94;43.35;100465.25;4958336;28;45437;-57
2023/06/09 05:54:56;;;;;;;;;18.75;17.00;;;;;23.94;43.55;100463.44;4959002;28;45403;-57
2023/06/09 05:57:25;;;;;;;;;21.67;18.67;;;;;23.92;43.32;100462.69;4943454;28;45609;-57
2023/06/09 05:59:51;;;;;;;;;21.25;19.25;;;;;23.93;43.36;100458.25;4976095;28;46231;-58
2023/06/09 06:02:17;;;;;;;;;20.75;17.00;;;;;23.94;43.59;100465.25;4951846;28;45185;-57
2023/06/09 06:04:42;;;;;;;;;18.25;15.25;;;;;23.95;43.55;100461.66;4977503;28;45390;-56
2023/06/09 06:07:07;;;;;;;;;21.00;20.00;;;;;23.94;43.03;100463.44;4967603;28;45170;-56
2023/06/09 06:09:33;;;;;;;;;18.50;16.75;;;;;23.96;43.19;100476.59;4966678;28;45964;-56
2023/06/09 06:11:58;;;;;;;;;18.75;18.25;;;;;23.96;43.30;100462.50;4922399;28;45298;-56
2023/06/09 06:14:23;;;;;;;;;17.75;17.75;;;;;23.97;43.29;100465.06;4958318;28;45303;-55
2023/06/09 06:16:49;;;;;;;;;22.25;19.00;;;;;23.96;42.76;100463.34;4958592;28;45322;-57
2023/06/09 06:19:14;;;;;;;;;14.75;14.75;;;;;23.99;42.80;100462.28;4971092;28;45481;-56
2023/06/09 06:21:45;;;;;;;;;18.00;17.33;;;;;24.01;42.68;100465.66;4981033;28;57214;-56
2023/06/09 06:24:11;;;;;;;;;18.00;18.00;;;;;24.02;43.20;100464.69;4982367;28;44713;-57
2023/06/09 06:26:36;;;;;;;;;21.75;19.00;;;;;24.05;42.79;100462.66;4965179;28;45355;-57
2023/06/09 06:29:02;;;;;;;;;22.50;19.75;;;;;24.07;42.81;100462.53;4958241;28;45556;-56
2023/06/09 06:31:31;;;;;;;;;19.25;18.00;;;;;24.09;42.84;100460.59;4963005;28;45780;-57
2023/06/09 06:33:57;;;;;;;;;15.00;13.00;;;;;24.11;42.71;100463.13;4969943;28;45311;-57
2023/06/09 06:36:23;;;;;;;;;19.75;18.00;;;;;24.11;42.75;100458.69;4971902;28;45406;-57
2023/06/09 06:38:48;;;;;;;;;17.75;17.00;;;;;24.15;42.18;100459.28;4979909;28;45393;-56
2023/06/09 06:41:14;;;;;;;;;18.75;18.00;;;;;24.16;42.39;100458.34;4978342;28;47513;-57
2023/06/09 06:43:43;;;;;;;;;17.25;17.00;;;;;24.17;41.80;100466.16;4979518;28;45346;-57
2023/06/09 06:46:11;;;;;;;;;17.75;16.75;;;;;24.18;41.89;100464.38;4983522;28;45163;-58
2023/06/09 06:48:38;;;;;;;;;17.25;17.00;;;;;24.19;42.01;100464.22;4982526;28;46629;-56
2023/06/09 06:51:05;;;;;;;;;20.50;19.25;;;;;24.22;42.59;100473.75;4982613;28;45818;-54
2023/06/09 06:53:30;;;;;;;;;19.75;18.50;;;;;24.24;42.24;100469.19;4980232;28;45254;-55
2023/06/09 06:55:56;;;;;;;;;20.25;19.75;;;;;24.26;42.48;100475.19;4976755;28;44932;-55
2023/06/09 06:58:21;;;;;;;;;16.75;13.75;;;;;24.28;42.95;100469.78;4964824;28;46157;-55
2023/06/09 07:00:46;;;;;;;;;17.67;16.67;;;;;24.30;42.22;100471.38;4975536;28;59433;-55
2023/06/09 07:03:12;;;;;;;;;21.67;18.00;;;;;24.30;42.87;100471.38;4984769;28;55141;-55
2023/06/09 07:05:38;;;;;;;;;19.50;19.00;;;;;24.32;42.42;100466.78;4970842;28;45386;-56
2023/06/09 07:08:04;;;;;;;;;18.25;17.00;;;;;24.35;42.54;100468.34;4962573;28;46116;-55
2023/06/09 07:10:31;;;;;;;;;18.75;16.00;;;;;24.36;42.81;100473.53;4961595;28;45399;-56
2023/06/09 07:12:56;;;;;;;;;21.00;17.25;;;;;24.37;42.32;100467.28;4961866;28;45422;-55
2023/06/09 07:15:21;;;;;;;;;21.00;13.00;;;;;24.39;43.08;100473.28;4959462;28;45439;-55
2023/06/09 07:17:46;;;;;;;;;18.00;18.00;;;;;24.41;43.01;100477.63;4959696;28;46587;-56
2023/06/09 07:20:12;;;;;;;;;12.75;12.50;;;;;24.42;43.12;100477.50;4959311;28;52405;-56
2023/06/09 07:22:41;;;;;;;;;17.75;16.75;;;;;24.43;42.97;100471.25;4960948;28;45519;-53
2023/06/09 07:25:08;;;;;;;;;15.00;14.50;;;;;24.44;42.45;100485.31;4978047;28;44772;-55
2023/06/09 07:27:33;;;;;;;;;16.00;15.00;;;;;24.45;42.38;100479.06;4961088;28;46572;-55
2023/06/09 07:29:58;;;;;;;;;20.00;14.33;;;;;24.46;42.80;100478.09;4960361;28;61941;-56
2023/06/09 07:32:24;;;;;;;;;16.25;15.75;;;;;24.47;42.57;100490.38;4959540;28;45229;-58
2023/06/09 07:34:50;;;;;;;;;22.50;16.25;;;;;24.48;42.60;100495.56;4959432;28;45374;-55
2023/06/09 07:37:15;;;;;;;;;20.25;18.50;;;;;24.51;42.83;100502.44;4958757;28;45620;-54
2023/06/09 07:39:41;;;;;;;;;22.00;18.25;;;;;24.50;42.95;100492.81;4959280;28;45456;-55
2023/06/09 07:42:06;;;;;;;;;16.50;16.50;;;;;24.50;42.26;100488.34;4959381;28;45339;-55
2023/06/09 07:44:32;;;;;;;;;16.25;16.25;;;;;24.55;42.55;100490.63;4959609;28;45491;-55
2023/06/09 07:46:57;;;;;;;;;17.00;13.75;;;;;24.55;42.91;100487.97;4959435;28;46260;-54
2023/06/09 07:49:22;;;;;;;;;18.25;16.75;;;;;24.56;42.45;100484.38;4957258;28;45741;-55
2023/06/09 07:51:50;;;;;;;;;18.75;18.50;;;;;24.56;42.62;100489.66;4942280;28;45449;-54
2023/06/09 07:54:16;;;;;;;;;16.75;16.25;;;;;24.59;42.47;100486.78;4965607;28;45192;-55
2023/06/09 07:56:41;;;;;;;;;17.00;16.50;;;;;24.59;42.72;100483.28;4978215;28;46482;-54
2023/06/09 07:59:06;;;;;;;;;19.75;15.25;;;;;24.61;42.76;100492.81;4965789;28;45617;-56
2023/06/09 08:01:32;;;;;;;;;17.50;16.50;;;;;24.62;42.61;100481.25;4960022;28;45399;-55
2023/06/09 08:03:58;;;;;;;;;16.00;15.00;;;;;24.63;42.62;100482.94;4965660;28;45678;-54
2023/06/09 08:06:23;;;;;;;;;18.75;14.00;;;;;24.65;42.58;100485.47;4970983;28;45224;-54
2023/06/09 08:08:49;;;;;;;;;19.00;18.00;;;;;24.66;42.16;100479.19;4961027;28;45278;-54
2023/06/09 08:11:16;;;;;;;;;20.00;19.00;;;;;24.64;42.03;100475.81;4959505;28;45528;-55
2023/06/09 08:13:41;;;;;;;;;16.00;15.50;;;;;24.67;42.24;100473.75;4959429;28;45366;-53
2023/06/09 08:16:06;;;;;;;;;17.25;15.75;;;;;24.67;42.89;100468.47;4958567;28;49467;-56
2023/06/09 08:18:31;;;;;;;;;18.00;16.00;;;;;24.68;42.25;100467.53;4958723;28;45263;-55
2023/06/09 08:20:57;;;;;;;;;19.50;15.50;;;;;24.70;42.07;100462.09;4958658;28;45313;-54
2023/06/09 08:23:23;;;;;;;;;18.75;17.50;;;;;24.70;42.48;100457.66;4958902;28;45432;-53
2023/06/09 08:25:49;;;;;;;;;16.75;15.50;;;;;24.72;42.88;100459.34;4958287;28;47800;-55
2023/06/09 08:28:15;;;;;;;;;16.75;15.25;;;;;24.69;42.40;100450.69;4958558;28;46091;-53
2023/06/09 08:30:41;;;;;;;;;20.50;15.50;;;;;24.75;42.32;100456.47;4958785;28;45255;-53
2023/06/09 08:33:06;;;;;;;;;18.00;16.00;;;;;24.73;42.54;100445.13;4958827;28;45322;-54
2023/06/09 19:10:38;;;;;;;;;14.75;13.25;;;;;25.47;37.57;100354.28;4940503;28;45307;-54
2023/06/09 19:13:04;;;;;;;;;12.00;11.00;;;;;25.47;37.64;100343.66;4943284;28;45412;-54
2023/06/09 19:15:29;;;;;;;;;17.25;14.75;;;;;25.48;37.42;100350.66;4946072;28;45541;-55
2023/06/09 19:17:58;;;;;;;;;19.25;16.00;;;;;25.49;37.90;100347.03;4942994;28;45284;-52
2023/06/09 19:20:24;;;;;;;;;18.75;16.50;;;;;25.50;37.69;100351.38;4944123;28;45765;-49
2023/06/09 19:22:50;;;;;;;;;23.25;19.25;;;;;25.50;37.51;100345.22;4946908;28;45363;-53
2023/06/09 19:25:16;;;;;;;;;18.75;17.25;;;;;25.50;37.68;100348.72;4942795;28;45628;-51
2023/06/09 19:27:42;;;;;;;;;18.00;17.25;;;;;25.53;38.12;100348.44;4944261;28;46105;-48
2023/06/09 19:30:09;;;;;;;;;17.00;17.00;;;;;25.52;38.23;100346.75;4926522;28;45284;-49
2023/06/09 19:32:34;;;;;;;;;19.00;19.00;;;;;25.53;38.56;100353.75;4926435;28;45393;-51
2023/06/09 19:35:00;;;;;;;;;19.50;17.00;;;;;25.53;38.05;100351.09;4941242;28;45371;-51
2023/06/09 19:37:26;;;;;;;;;22.75;20.00;;;;;25.54;37.95;100355.44;4930249;28;47658;-50
2023/06/09 19:39:51;;;;;;;;;20.50;18.75;;;;;25.54;38.76;100355.44;4950163;28;45227;-48
2023/06/09 19:42:22;;;;;;;;;21.25;17.75;;;;;25.55;38.55;100350.97;4944951;28;45245;-48
2023/06/09 19:44:52;;;;;;;;;16.25;16.25;;;;;25.55;38.22;100362.41;4952196;28;45319;-50
2023/06/09 19:47:18;;;;;;;;;19.00;18.00;;;;;25.54;38.98;100355.44;4934053;28;46199;-49
2023/06/09 19:49:43;;;;;;;;;18.25;15.25;;;;;25.55;38.67;100351.81;4947610;28;45233;-47
2023/06/09 19:52:09;;;;;;;;;18.25;17.25;;;;;25.56;38.52;100353.50;4943844;28;54838;-56
2023/06/09 19:54:35;;;;;;;;;11.25;10.50;;;;;25.56;38.75;100356.16;4943824;28;45227;-49
2023/06/09 19:57:00;;;;;;;;;18.75;18.25;;;;;25.57;39.00;100355.19;4943105;28;47135;-48
2023/06/09 19:59:26;;;;;;;;;21.50;17.50;;;;;25.58;39.08;100358.66;4944303;28;54933;-53
2023/06/09 20:01:51;;;;;;;;;17.00;16.25;;;;;25.58;39.62;100359.53;4942819;28;45884;-50
2023/06/09 20:04:17;;;;;;;;;16.50;15.25;;;;;25.59;38.96;100355.91;4943471;28;45519;-48
2023/06/09 20:06:42;;;;;;;;;19.50;15.75;;;;;25.59;39.52;100360.34;4924089;28;47779;-51
2023/06/09 20:09:08;;;;;;;;;21.50;16.25;;;;;25.61;39.46;100369.03;4941188;28;45988;-50
2023/06/09 20:11:34;;;;;;;;;16.00;14.50;;;;;25.60;39.56;100368.19;4944177;28;45334;-46
2023/06/09 20:14:00;;;;;;;;;15.50;15.50;;;;;25.60;39.26;100378.81;4927561;28;45399;-50
2023/06/09 20:16:25;;;;;;;;;17.50;15.50;;;;;25.61;39.11;100377.00;4953002;28;46205;-51
2023/06/09 20:18:51;;;;;;;;;16.50;16.25;;;;;25.62;39.37;100383.97;4954685;28;45221;-48
2023/06/09 20:21:17;;;;;;;;;16.50;15.75;;;;;25.62;39.73;100386.63;4947686;28;45224;-48
2023/06/09 20:23:43;;;;;;;;;15.50;14.50;;;;;25.61;39.39;100388.47;4944779;28;45338;-45
2023/06/09 20:26:10;;;;;;;;;15.50;15.50;;;;;25.61;39.88;100393.78;4946309;28;46236;-46
2023/06/09 20:28:36;;;;;;;;;15.25;15.25;;;;;25.63;39.56;100404.25;4945544;28;46351;-45
2023/06/09 20:31:05;;;;;;;;;13.75;12.75;;;;;25.63;39.53;100401.59;4943330;28;45365;-48
2023/06/09 20:33:30;;;;;;;;;16.75;15.25;;;;;25.62;39.83;100403.41;4948181;28;45430;-50
2023/06/09 20:35:56;;;;;;;;;15.25;14.25;;;;;25.63;39.45;100405.06;4956674;28;46509;-45
2023/06/09 20:38:21;;;;;;;;;15.00;14.25;;;;;25.63;40.13;100406.91;4945604;28;55054;-46
2023/06/09 20:40:46;;;;;;;;;19.25;16.00;;;;;25.63;40.39;100407.72;4936190;28;45386;-53
2023/06/09 20:43:17;;;;;;;;;13.25;13.25;;;;;25.62;40.41;100411.38;4978745;28;44989;-53
2023/06/09 20:45:44;;;;;;;;;16.50;16.00;;;;;25.64;40.07;100416.53;4978683;28;46097;-51
2023/06/09 20:48:10;;;;;;;;;15.50;13.25;;;;;25.66;40.63;100421.72;4969717;28;45393;-53
2023/06/09 20:50:35;;;;;;;;;22.75;16.00;;;;;25.66;40.47;100427.88;4963875;28;50811;-56
2023/06/09 20:53:00;;;;;;;;;17.25;14.75;;;;;25.68;40.59;100425.09;4964182;28;45743;-56
2023/06/09 20:55:26;;;;;;;;;15.25;12.75;;;;;25.69;40.34;100426.78;4960302;28;45676;-56
2023/06/09 20:57:54;;;;;;;;;16.25;15.00;;;;;25.72;40.03;100431.84;4959749;28;49802;-55
2023/06/09 21:00:19;;;;;;;;;16.50;15.00;;;;;25.73;40.39;100439.66;4963108;28;45476;-56
2023/06/09 21:02:47;;;;;;;;;15.25;15.25;;;;;25.75;40.90;100442.16;4963022;28;45331;-54
2023/06/09 21:05:12;;;;;;;;;15.75;15.00;;;;;25.77;40.23;100437.56;4959902;28;45377;-54
2023/06/09 21:07:37;;;;;;;;;14.25;13.00;;;;;25.78;40.79;100444.56;4961617;28;45454;-53
2023/06/09 21:10:03;;;;;;;;;13.00;12.00;;;;;25.80;40.78;100442.63;4960348;28;56970;-54
2023/06/09 21:12:28;;;;;;;;;14.50;14.00;;;;;25.81;40.52;100436.34;4965461;28;45394;-54
2023/06/09 21:14:54;;;;;;;;;16.00;13.75;;;;;25.82;40.78;100440.69;4964330;28;45290;-55
2023/06/09 21:17:19;;;;;;;;;16.75;14.00;;;;;25.82;40.43;100439.84;4961446;28;45416;-53
2023/06/09 21:19:44;;;;;;;;;15.75;14.00;;;;;25.81;40.53;100441.66;4960048;28;45397;-55
2023/06/09 21:22:10;;;;;;;;;17.25;12.75;;;;;25.81;40.58;100438.16;4959953;28;45428;-54
2023/06/09 21:24:35;;;;;;;;;18.75;14.25;;;;;25.80;40.29;100437.31;4962745;28;46927;-53
2023/06/09 21:27:01;;;;;;;;;15.75;12.25;;;;;25.80;40.74;100439.97;4960169;28;50706;-55
2023/06/09 21:29:26;;;;;;;;;14.50;14.00;;;;;25.80;40.88;100434.66;4962055;28;45216;-48
2023/06/09 21:31:51;;;;;;;;;11.75;10.75;;;;;25.80;40.58;100437.31;4962374;28;45278;-56
2023/06/09 21:34:17;;;;;;;;;16.50;14.75;;;;;25.80;40.73;100447.13;4960249;28;45160;-54
2023/06/09 21:36:42;;;;;;;;;15.00;15.00;;;;;25.79;40.63;100435.63;4972909;28;45219;-56
2023/06/09 21:39:07;;;;;;;;;13.25;13.25;;;;;25.78;40.56;100431.28;4978483;28;44676;-55
2023/06/09 21:41:33;;;;;;;;;12.25;10.25;;;;;25.79;40.66;100440.94;4976212;28;48582;-49